Time;durP1;ratioP1;P1;durP2;ratioP2;P2;SDS_P1;SDS_P2;PMS_P1;PMS_P2;Temp;Humidity;BMP_temperature;BMP_pressure;BME280_temperature;BME280_humidity;BME280_pressure;Samples;Min_cycle;Max_cycle;Signal;HPM_P1;HPM_P2
2022/12/17 13:06:55;;;;;;;52.38;11.20;;;;;;;23.42;47.38;100389.69;7307812;19;129794;-66
2022/12/17 13:09:30;;;;;;;53.80;11.88;;;;;;;23.49;47.88;100406.59;7317445;19;128866;-65
2022/12/17 13:12:16;;;;;;;65.55;11.88;;;;;;;23.49;48.10;100401.34;7307260;19;130461;-68
2022/12/17 13:14:47;;;;;;;64.30;11.68;;;;;;;23.49;48.70;100401.34;7310617;19;130335;-67
2022/12/17 13:17:15;;;;;;;46.50;10.80;;;;;;;23.41;48.16;100393.31;7313640;19;129779;-68
2022/12/17 13:19:44;;;;;;;25.90;9.15;;;;;;;23.50;48.34;100407.44;7315789;19;129054;-65
2022/12/17 13:22:14;;;;;;;49.30;9.98;;;;;;;23.55;48.75;100400.81;7313443;19;129438;-68
2022/12/17 13:24:44;;;;;;;39.78;9.73;;;;;;;23.60;48.34;100408.31;7319282;19;129255;-67
2022/12/17 13:27:29;;;;;;;52.30;10.35;;;;;;;23.61;48.83;100421.28;7314139;19;132078;-68
2022/12/17 13:29:54;;;;;;;47.88;9.98;;;;;;;23.57;49.03;100409.38;7313551;19;129372;-67
2022/12/17 13:32:30;;;;;;;57.40;11.07;;;;;;;23.64;48.59;100417.56;7312369;19;130408;-66
2022/12/17 13:35:27;;;;;;;61.60;11.30;;;;;;;23.66;48.54;100419.09;7311890;19;132059;-67
2022/12/17 13:38:19;;;;;;;56.67;10.50;;;;;;;23.66;49.21;100419.09;7316051;19;129624;-66
2022/12/17 13:41:07;;;;;;;34.58;8.88;;;;;;;23.67;48.88;100427.81;7315321;19;129050;-68
2022/12/17 13:43:38;;;;;;;45.60;9.65;;;;;;;23.66;49.00;100429.59;7315151;19;129795;-65
2022/12/17 13:46:04;;;;;;;51.53;9.65;;;;;;;23.69;49.05;100437.22;7315464;19;129604;-65
2022/12/17 13:48:29;;;;;;;49.57;10.03;;;;;;;23.69;48.90;100439.00;7313722;19;130078;-65
2022/12/17 13:51:00;;;;;;;53.30;10.40;;;;;;;23.74;48.30;100437.63;7311404;19;129167;-66
2022/12/17 13:53:27;;;;;;;43.85;10.13;;;;;;;23.76;48.98;100438.34;7315071;19;130051;-66
2022/12/17 13:55:53;;;;;;;;;;;;;;;23.63;49.04;100440.38;7312370;19;129428;-66
2022/12/17 13:58:21;;;;;;;46.35;9.07;;;;;;;23.64;49.77;100444.66;7313768;19;129274;-66
2022/12/17 14:00:46;;;;;;;51.00;9.73;;;;;;;23.58;48.84;100449.59;7312775;19;130082;-68
2022/12/17 14:03:11;;;;;;;47.47;9.23;;;;;;;23.59;49.35;100448.63;7313182;19;129305;-65
2022/12/17 14:05:42;;;;;;;47.13;9.13;;;;;;;23.53;49.92;100450.00;7312066;19;129177;-64
2022/12/17 14:08:11;;;;;;;60.60;10.20;;;;;;;23.45;49.50;100451.63;7309043;19;132217;-68
2022/12/17 14:10:36;;;;;;;32.40;8.15;;;;;;;23.38;49.38;100453.09;7312744;19;129056;-67
2022/12/17 14:13:11;;;;;;;40.47;8.83;;;;;;;23.30;50.12;100469.50;7315057;19;129381;-68
2022/12/17 14:15:36;;;;;;;41.72;8.63;;;;;;;23.24;50.10;100475.22;7313387;19;129180;-65
2022/12/17 14:18:03;;;;;;;46.80;9.73;;;;;;;23.16;50.79;100472.41;7315092;19;129484;-65
2022/12/17 14:20:32;;;;;;;61.63;9.93;;;;;;;23.11;51.29;100478.03;7317075;19;129364;-66
2022/12/17 14:23:17;;;;;;;41.90;9.30;;;;;;;23.08;51.23;100482.69;7312523;19;128977;-68
2022/12/17 14:25:43;;;;;;;36.45;7.72;;;;;;;23.05;50.75;100490.84;7313528;19;129205;-65
2022/12/17 14:28:27;;;;;;;52.13;9.97;;;;;;;23.05;51.05;100485.59;7312024;19;129279;-67
2022/12/17 14:31:06;;;;;;;44.28;8.90;;;;;;;23.06;50.87;100492.47;7310526;19;129513;-67
2022/12/17 14:33:36;;;;;;;66.05;11.10;;;;;;;23.07;51.32;100489.72;7311307;19;129358;-68
2022/12/17 14:36:16;;;;;;;48.83;9.55;;;;;;;23.04;50.69;100494.41;7312092;19;129061;-67
2022/12/17 14:38:59;;;;;;;44.90;9.00;;;;;;;23.06;51.26;100501.19;7313153;19;129630;-68
2022/12/17 14:44:24;;;;;;;57.25;9.55;;;;;;;23.12;51.24;100502.50;7311698;19;129026;-68
2022/12/17 14:46:53;;;;;;;56.28;9.55;;;;;;;23.14;50.48;100511.03;7312995;19;129193;-65
2022/12/17 14:49:20;;;;;;;38.45;9.00;;;;;;;23.21;49.53;100518.28;7314017;19;129283;-67
2022/12/17 14:51:47;;;;;;;38.00;8.93;;;;;;;23.16;48.00;100515.22;7313103;19;131009;-66
2022/12/17 14:54:15;;;;;;;47.67;9.68;;;;;;;23.08;48.61;100501.06;7310114;19;130517;-66
2022/12/17 14:56:42;;;;;;;27.77;7.80;;;;;;;23.10;49.58;100517.50;7313250;19;129107;-69
2022/12/17 14:59:36;;;;;;;70.72;10.65;;;;;;;23.04;49.77;100525.88;7309491;19;129316;-66
2022/12/17 15:02:07;;;;;;;31.45;7.72;;;;;;;22.98;50.27;100527.22;7309003;19;129475;-66
2022/12/17 15:04:36;;;;;;;34.58;8.73;;;;;;;22.94;50.90;100535.47;7312966;19;129627;-68
2022/12/17 15:07:02;;;;;;;51.53;9.15;;;;;;;22.87;50.46;100524.63;7310194;19;131949;-66
2022/12/17 15:09:27;;;;;;;40.40;8.53;;;;;;;22.87;51.12;100542.16;7312923;19;131679;-69
2022/12/17 15:11:53;;;;;;;43.60;8.77;;;;;;;22.84;51.07;100539.81;7311736;19;129611;-66
2022/12/17 15:14:18;;;;;;;36.93;8.27;;;;;;;22.76;50.78;100537.78;7311623;19;129117;-68
2022/12/17 15:16:44;;;;;;;52.20;9.50;;;;;;;22.72;51.58;100546.88;7312562;19;129716;-67
2022/12/17 15:19:10;;;;;;;45.53;8.25;;;;;;;22.65;51.93;100544.84;7313321;19;129553;-68
2022/12/17 15:21:35;;;;;;;36.67;7.53;;;;;;;22.63;51.60;100552.00;7310397;19;129098;-66
2022/12/17 15:24:01;;;;;;;14.00;7.07;;;;;;;22.60;51.95;100542.63;7309751;19;129476;-65
2022/12/17 15:26:26;;;;;;;55.42;8.90;;;;;;;22.55;51.66;100544.78;7311876;19;130050;-68
2022/12/17 15:28:51;;;;;;;48.20;8.57;;;;;;;22.49;52.41;100544.41;7304489;19;129694;-65
2022/12/17 15:31:17;;;;;;;31.03;8.50;;;;;;;22.50;52.62;100556.53;7311051;19;128829;-66
2022/12/17 15:33:42;;;;;;;47.53;8.80;;;;;;;22.50;52.61;100559.16;7308761;19;130493;-66
2022/12/17 15:36:10;;;;;;;43.27;8.13;;;;;;;22.47;52.87;100557.63;7310560;19;130143;-67
2022/12/17 15:38:36;;;;;;;17.77;5.85;;;;;;;22.47;54.18;100560.25;7309669;19;133007;-69
2022/12/17 15:43:48;;;;;;;39.00;7.75;;;;;;;22.39;53.66;100562.63;7307174;19;129818;-68
2022/12/17 15:46:13;;;;;;;46.40;8.68;;;;;;;22.38;53.36;100557.53;7308911;19;129553;-68
2022/12/17 15:48:39;;;;;;;38.03;7.97;;;;;;;22.38;54.03;100568.00;7310223;19;129266;-68
2022/12/17 15:51:04;;;;;;;51.50;8.50;;;;;;;22.39;53.19;100564.41;7311199;19;129517;-68
2022/12/17 15:53:30;;;;;;;56.90;9.38;;;;;;;22.37;54.88;100566.31;7309637;19;129113;-67
2022/12/17 15:56:02;;;;;;;56.47;8.97;;;;;;;22.34;56.24;100569.19;7309184;19;129160;-66
2022/12/17 15:58:28;;;;;;;40.05;8.15;;;;;;;22.33;53.63;100564.91;7307258;19;133761;-70
2022/12/17 16:00:53;;;;;;;37.50;7.63;;;;;;;22.33;54.88;100570.16;7313299;19;130348;-67
2022/12/17 16:03:19;;;;;;;51.80;9.13;;;;;;;22.30;54.88;100567.75;7310317;19;129064;-66
2022/12/17 16:05:44;;;;;;;38.80;7.77;;;;;;;22.24;53.72;100574.31;7307699;19;129538;-68
2022/12/17 16:08:10;;;;;;;35.88;7.55;;;;;;;22.27;55.17;100575.84;7308987;19;129897;-66
2022/12/17 16:10:36;;;;;;;38.28;7.53;;;;;;;22.14;54.82;100564.66;7320201;19;130320;-68
2022/12/17 16:13:01;;;;;;;23.67;6.50;;;;;;;22.18;55.04;100577.41;7308920;19;130462;-66
2022/12/17 16:15:27;;;;;;;68.05;9.48;;;;;;;22.15;55.54;100589.94;7309756;19;129126;-67
2022/12/17 16:17:52;;;;;;;39.80;7.32;;;;;;;22.11;54.43;100581.47;7309604;19;132071;-68
2022/12/17 16:20:17;;;;;;;46.90;8.27;;;;;;;21.98;55.05;100564.19;7311485;19;129515;-68
2022/12/17 16:22:43;;;;;;;35.40;7.63;;;;;;;21.98;54.90;100597.28;7310248;19;128978;-68
2022/12/17 16:25:09;;;;;;;53.63;8.35;;;;;;;21.98;55.84;100595.63;7310624;19;129523;-66
2022/12/17 16:27:34;;;;;;;30.47;6.93;;;;;;;21.81;54.90;100568.13;7308792;19;129744;-66
2022/12/17 16:30:00;;;;;;;41.10;7.60;;;;;;;21.93;54.49;100596.78;7309612;19;129780;-68
2022/12/17 16:32:25;;;;;;;41.80;8.10;;;;;;;21.93;55.04;100599.41;7308908;19;128747;-67
2022/12/17 16:34:50;;;;;;;61.10;9.27;;;;;;;21.86;55.27;100597.41;7313336;19;132992;-68
2022/12/17 16:37:16;;;;;;;63.40;9.52;;;;;;;21.87;56.43;100593.81;7318517;19;131067;-67
2022/12/17 16:39:41;;;;;;;32.30;6.70;;;;;;;21.84;55.52;100594.91;7316991;19;129217;-67
2022/12/17 16:42:06;;;;;;;24.93;6.73;;;;;;;21.83;55.52;100587.16;7314528;19;128823;-68
2022/12/17 16:44:32;;;;;;;48.80;8.27;;;;;;;21.76;56.34;100578.94;7317916;19;129183;-67
2022/12/17 16:46:57;;;;;;;28.47;6.17;;;;;;;21.93;56.59;100604.66;7314640;19;132001;-67
2022/12/17 16:49:23;;;;;;;53.45;8.80;;;;;;;21.93;55.68;100602.03;7315378;19;130520;-68
2022/12/17 16:51:50;;;;;;;56.08;8.45;;;;;;;21.85;55.34;100617.50;7313193;19;129621;-68
2022/12/17 16:54:27;;;;;;;50.40;8.45;;;;;;;21.75;54.54;100611.25;7312894;19;132483;-65
2022/12/17 16:56:53;;;;;;;29.60;6.35;;;;;;;21.68;54.24;100607.44;7316488;19;129442;-66
2022/12/17 16:59:19;;;;;;;41.55;7.18;;;;;;;21.66;54.29;100611.97;7314354;19;130124;-67
2022/12/17 17:01:47;;;;;;;28.02;6.55;;;;;;;21.66;55.00;100606.72;7315197;19;129834;-68
2022/12/17 17:04:15;;;;;;;51.67;7.70;;;;;;;21.68;54.77;100612.66;7325903;19;129330;-68
2022/12/17 17:06:43;;;;;;;34.55;6.75;;;;;;;21.72;53.96;100613.25;7315404;19;130576;-68
2022/12/17 17:09:10;;;;;;;33.20;6.45;;;;;;;21.77;54.40;100617.25;7314808;19;129397;-67
2022/12/17 17:11:35;;;;;;;29.53;6.27;;;;;;;21.79;54.96;100623.22;7314025;19;129879;-65
2022/12/17 17:14:02;;;;;;;34.08;6.22;;;;;;;21.83;54.50;100619.38;7315366;19;129126;-67
2022/12/17 17:16:27;;;;;;;30.42;6.53;;;;;;;21.86;54.52;100623.56;7315909;19;129841;-67
2022/12/17 17:18:53;;;;;;;39.42;7.05;;;;;;;21.85;54.61;100622.72;7316763;19;129000;-68
2022/12/17 17:21:18;;;;;;;47.55;7.72;;;;;;;21.90;54.15;100625.00;7314635;19;129517;-69
2022/12/17 17:23:49;;;;;;;42.73;6.93;;;;;;;21.89;54.50;100633.81;7316348;19;130120;-68
2022/12/17 17:26:15;;;;;;;38.40;6.82;;;;;;;21.89;53.87;100637.28;7315226;19;132152;-66
2022/12/17 17:28:41;;;;;;;10.00;5.30;;;;;;;21.88;54.15;100648.69;7315276;19;131448;-68
2022/12/17 17:31:10;;;;;;;17.20;5.25;;;;;;;21.84;54.45;100636.78;7315327;19;129284;-68
2022/12/17 17:33:38;;;;;;;44.17;6.78;;;;;;;21.88;54.20;100646.06;7315552;19;129706;-66
2022/12/17 17:36:04;;;;;;;32.65;6.30;;;;;;;21.89;54.05;100645.13;7314418;19;134760;-67
2022/12/17 17:38:32;;;;;;;33.47;6.60;;;;;;;21.81;53.86;100631.78;7312175;19;130138;-68
2022/12/17 17:40:58;;;;;;;73.32;9.23;;;;;;;21.93;53.28;100662.25;7308629;19;129652;-66
2022/12/17 17:43:23;;;;;;;57.58;8.63;;;;;;;21.90;53.82;100657.25;7303872;19;131937;-65
2022/12/17 17:45:48;;;;;;;40.15;6.90;;;;;;;21.96;53.75;100650.72;7309791;19;129300;-66
2022/12/17 17:48:14;;;;;;;65.47;8.35;;;;;;;21.96;53.45;100656.78;7308347;19;130375;-66
2022/12/17 17:50:39;;;;;;;52.33;7.87;;;;;;;21.97;53.57;100652.38;7306939;19;130056;-67
2022/12/17 17:53:05;;;;;;;51.13;7.10;;;;;;;21.86;53.99;100640.13;7308270;19;131922;-68
2022/12/17 17:55:33;;;;;;;25.03;5.97;;;;;;;21.98;53.86;100660.13;7311426;19;129559;-68
2022/12/17 17:57:59;;;;;;;26.30;6.13;;;;;;;21.94;53.11;100658.72;7323925;19;131259;-65
2022/12/17 18:00:24;;;;;;;77.38;10.02;;;;;;;21.95;52.84;100644.66;7310743;19;129890;-66
2022/12/17 18:02:49;;;;;;;55.50;7.80;;;;;;;21.98;53.23;100653.22;7307907;19;132494;-65
2022/12/17 18:05:15;;;;;;;39.03;6.47;;;;;;;21.90;53.27;100643.31;7311271;19;132050;-66
2022/12/17 18:07:40;;;;;;;40.13;7.18;;;;;;;22.00;53.29;100667.03;7307253;19;129654;-68
2022/12/17 18:10:07;;;;;;;46.08;6.75;;;;;;;22.01;53.79;100658.22;7313339;19;129733;-65
2022/12/17 18:15:16;;;;;;;61.25;8.13;;;;;;;21.94;54.08;100653.47;7312782;19;129532;-69
2022/12/17 18:17:46;;;;;;;35.95;6.32;;;;;;;21.83;53.47;100642.13;7311684;19;129025;-69
2022/12/17 18:20:11;;;;;;;39.45;6.30;;;;;;;21.95;53.97;100665.59;7312968;19;129532;-68
2022/12/17 18:22:37;;;;;;;30.60;5.75;;;;;;;21.94;53.54;100668.34;7312809;19;129315;-69
2022/12/17 18:25:03;;;;;;;79.57;9.35;;;;;;;21.82;53.78;100654.38;7309448;19;130195;-65
2022/12/17 18:27:28;;;;;;;75.50;9.37;;;;;;;21.90;53.88;100672.97;7308973;19;129910;-66
2022/12/17 18:29:53;;;;;;;47.53;7.50;;;;;;;21.91;53.84;100673.81;7309801;19;130529;-66
2022/12/17 18:32:19;;;;;;;55.53;7.22;;;;;;;21.91;53.09;100685.09;7309392;19;129697;-66
2022/12/17 18:34:44;;;;;;;50.10;7.20;;;;;;;21.88;54.11;100682.72;7308027;19;131879;-67
2022/12/17 18:37:09;;;;;;;26.35;6.18;;;;;;;21.86;54.23;100682.00;7312058;19;128974;-66
2022/12/17 18:39:35;;;;;;;32.92;6.55;;;;;;;21.87;53.91;100683.66;7314940;19;128971;-69
2022/12/17 18:45:01;;;;;;;61.40;8.38;;;;;;;21.84;53.99;100689.16;7306185;19;130802;-66
2022/12/17 18:47:27;;;;;;;62.60;8.25;;;;;;;21.83;54.04;100699.72;7307021;19;129507;-67
2022/12/17 18:49:52;;;;;;;80.25;10.02;;;;;;;21.84;54.09;100696.16;7306880;19;130165;-68
2022/12/17 18:52:17;;;;;;;65.40;8.68;;;;;;;21.83;54.50;100703.16;7305851;19;130620;-67
2022/12/17 18:54:43;;;;;;;40.88;6.55;;;;;;;21.80;53.82;100697.31;7322116;19;129373;-66
2022/12/17 18:57:08;;;;;;;21.42;5.05;;;;;;;21.86;54.35;100704.72;7309992;19;129221;-67
2022/12/17 18:59:34;;;;;;;24.45;5.72;;;;;;;21.83;54.00;100708.41;7312468;19;129955;-65
2022/12/17 19:01:59;;;;;;;44.43;6.20;;;;;;;21.78;54.49;100702.66;7308886;19;130359;-66
2022/12/17 19:04:25;;;;;;;45.67;7.07;;;;;;;21.80;53.72;100719.09;7307867;19;132937;-66
2022/12/17 19:06:52;;;;;;;48.63;6.93;;;;;;;21.80;54.44;100719.09;7310288;19;129773;-68
2022/12/17 19:09:25;;;;;;;48.60;6.90;;;;;;;21.79;54.08;100725.28;7306521;19;130522;-67
2022/12/17 19:11:51;;;;;;;23.15;5.15;;;;;;;21.77;54.26;100723.72;7307416;19;129469;-67
2022/12/17 19:14:17;;;;;;;61.15;7.95;;;;;;;21.72;54.57;100716.19;7310710;19;130141;-66
2022/12/17 19:16:43;;;;;;;57.90;8.30;;;;;;;21.78;53.54;100731.47;7308257;19;129904;-69
2022/12/17 19:19:12;;;;;;;42.17;7.30;;;;;;;21.78;54.13;100725.41;7310474;19;129733;-66
2022/12/17 19:21:37;;;;;;;52.97;7.97;;;;;;;21.78;53.33;100726.22;7295228;19;131831;-68
2022/12/17 19:24:05;;;;;;;49.15;7.75;;;;;;;21.74;54.20;100729.16;7309414;19;129534;-70
2022/12/17 19:26:31;;;;;;;36.53;6.75;;;;;;;21.62;53.56;100714.34;7310977;19;129130;-66
2022/12/17 19:28:59;;;;;;;31.58;6.95;;;;;;;21.67;53.68;100728.78;7311700;19;129417;-68
2022/12/17 19:31:27;;;;;;;47.47;7.78;;;;;;;21.73;53.83;100730.94;7306037;19;129990;-66
2022/12/17 19:33:54;;;;;;;31.38;6.43;;;;;;;21.69;53.95;100729.50;7309212;19;129592;-68
2022/12/17 19:36:21;;;;;;;59.92;8.27;;;;;;;21.72;53.77;100736.28;7308045;19;130220;-66
2022/12/17 19:38:51;;;;;;;40.35;7.07;;;;;;;21.72;54.11;100737.13;7310852;19;129215;-64
2022/12/17 19:41:17;;;;;;;62.88;8.73;;;;;;;21.71;53.52;100735.47;7306486;19;133141;-68
2022/12/17 19:43:45;;;;;;;42.00;7.38;;;;;;;21.70;53.57;100739.00;7311306;19;129436;-66
2022/12/17 19:46:13;;;;;;;47.08;7.40;;;;;;;21.58;53.63;100719.00;7309409;19;130669;-66
2022/12/17 19:48:39;;;;;;;24.00;5.63;;;;;;;21.73;53.59;100744.03;7314132;19;130053;-67
2022/12/17 19:51:06;;;;;;;48.93;7.73;;;;;;;21.70;53.71;100733.78;7309366;19;130387;-72
2022/12/17 19:53:33;;;;;;;38.70;7.07;;;;;;;21.63;53.46;100731.75;7308585;19;129823;-67
2022/12/17 19:56:21;;;;;;;34.05;6.93;;;;;;;21.71;54.65;100750.31;7309107;19;129226;-71
2022/12/17 19:58:49;;;;;;;;;;;;;;;21.70;55.37;100746.88;7312040;19;129568;-70
2022/12/17 20:01:21;;;;;;;46.05;7.38;;;;;;;21.57;54.29;100730.41;7310164;19;129910;-69
2022/12/17 20:03:46;;;;;;;33.30;6.55;;;;;;;21.71;54.14;100747.72;7313576;19;130115;-69
2022/12/17 20:06:15;;;;;;;26.05;6.20;;;;;;;21.71;54.11;100750.31;7309452;19;129736;-70
2022/12/17 20:08:40;;;;;;;38.55;6.95;;;;;;;21.68;53.74;100751.38;7308289;19;129305;-68
2022/12/17 20:14:02;;;;;;;56.92;8.25;;;;;;;21.63;54.21;100748.28;7313392;19;129843;-68
2022/12/17 20:16:30;;;;;;;36.58;6.57;;;;;;;21.65;53.66;100751.59;7311057;19;129970;-70
2022/12/17 20:18:58;;;;;;;21.73;5.93;;;;;;;21.64;54.18;100749.94;7309777;19;129506;-72
2022/12/17 20:21:23;;;;;;;33.58;5.97;;;;;;;21.63;53.43;100752.69;7309556;19;132309;-69
2022/12/17 20:23:49;;;;;;;57.92;7.63;;;;;;;21.62;54.01;100757.06;7310258;19;129974;-64
2022/12/17 20:26:15;;;;;;;40.45;7.20;;;;;;;21.62;54.12;100757.06;7308744;19;129222;-66
2022/12/17 20:28:40;;;;;;;27.63;5.63;;;;;;;21.64;54.62;100763.03;7309921;19;129212;-67
2022/12/17 20:31:06;;;;;;;24.07;6.10;;;;;;;21.64;53.94;100763.03;7311508;19;129164;-68
2022/12/17 20:33:31;;;;;;;55.75;7.65;;;;;;;21.61;53.89;100768.50;7308464;19;130581;-67
2022/12/17 20:36:05;;;;;;;51.03;7.88;;;;;;;21.61;55.53;100773.72;7307623;19;129491;-69
2022/12/17 20:38:30;;;;;;;29.55;6.57;;;;;;;21.64;54.33;100770.03;7309049;19;129931;-68
2022/12/17 20:40:56;;;;;;;29.23;6.38;;;;;;;21.58;53.38;100765.25;7308950;19;129158;-67
2022/12/17 20:43:21;;;;;;;66.95;8.40;;;;;;;21.60;54.03;100772.03;7323099;19;129044;-70
2022/12/17 20:45:54;;;;;;;41.42;6.70;;;;;;;21.62;53.79;100783.25;7310513;19;130377;-72
2022/12/17 20:48:20;;;;;;;33.03;6.13;;;;;;;21.62;53.97;100787.63;7309683;19;129355;-71
2022/12/17 20:50:47;;;;;;;;;;;;;;;21.60;55.40;100789.53;7312115;19;130338;-71
2022/12/17 20:53:12;;;;;;;54.35;7.70;;;;;;;21.62;54.44;100788.47;7307301;19;132294;-66
2022/12/17 20:55:37;;;;;;;56.13;7.63;;;;;;;21.62;53.84;100782.38;7307309;19;129348;-66
2022/12/17 20:58:03;;;;;;;37.40;6.90;;;;;;;21.50;54.06;100772.84;7306512;19;131407;-67
2022/12/17 21:00:28;;;;;;;40.30;7.20;;;;;;;21.63;53.75;100784.94;7305560;19;129088;-65
2022/12/17 21:02:54;;;;;;;59.67;8.60;;;;;;;21.62;53.69;100793.69;7307320;19;129763;-65
2022/12/17 21:05:19;;;;;;;34.10;6.50;;;;;;;21.60;54.26;100795.59;7308602;19;129488;-65
2022/12/17 21:07:45;;;;;;;31.73;6.03;;;;;;;21.61;53.82;100802.50;7307161;19;130066;-63
2022/12/17 21:10:11;;;;;;;47.55;7.13;;;;;;;21.59;54.21;100793.09;7307750;19;129600;-65
2022/12/17 21:15:21;;;;;;;48.00;6.70;;;;;;;21.59;54.34;100799.16;7306229;19;128918;-64
2022/12/17 21:17:46;;;;;;;46.53;7.18;;;;;;;21.57;54.41;100806.28;7302344;19;129822;-66
2022/12/17 21:20:12;;;;;;;40.10;6.67;;;;;;;21.46;54.51;100787.91;7307425;19;129771;-62
2022/12/17 21:22:39;;;;;;;64.15;8.40;;;;;;;21.57;53.73;100816.75;7310497;19;130845;-63
2022/12/17 21:25:05;;;;;;;;;;;;;;;21.57;54.77;100818.53;7312679;19;130422;-61
2022/12/17 21:27:30;;;;;;;53.33;7.95;;;;;;;21.56;54.04;100814.25;7310855;19;129225;-61
2022/12/17 21:29:56;;;;;;;43.33;6.87;;;;;;;21.45;54.34;100791.47;7307104;19;130245;-62
2022/12/17 21:32:21;;;;;;;45.40;6.70;;;;;;;21.57;54.20;100811.53;7309648;19;129482;-63
2022/12/17 21:34:46;;;;;;;44.33;6.75;;;;;;;21.58;54.59;100818.44;7309485;19;129642;-62
2022/12/17 21:37:12;;;;;;;32.88;6.35;;;;;;;21.60;53.88;100820.94;7311720;19;129976;-62
2022/12/17 21:39:38;;;;;;;34.23;5.77;;;;;;;21.60;53.82;100816.53;7313624;19;129736;-64
2022/12/17 21:44:47;;;;;;;73.78;8.35;;;;;;;21.63;53.98;100833.81;7310717;19;130107;-64
2022/12/17 21:47:12;;;;;;;39.47;6.32;;;;;;;21.64;54.24;100831.06;7310594;19;129987;-60
2022/12/17 21:49:38;;;;;;;36.53;6.40;;;;;;;21.61;53.59;100828.69;7307495;19;130788;-60
2022/12/17 21:52:04;;;;;;;21.65;5.28;;;;;;;21.61;54.59;100827.84;7311253;19;129855;-60
2022/12/17 21:54:29;;;;;;;41.53;6.20;;;;;;;21.60;54.24;100827.00;7314061;19;129942;-60
2022/12/17 21:56:55;;;;;;;39.00;6.35;;;;;;;21.52;54.41;100811.00;7309051;19;128879;-62
2022/12/17 21:59:20;;;;;;;46.45;7.13;;;;;;;21.58;54.19;100828.06;7314212;19;130108;-63
2022/12/17 22:01:45;;;;;;;43.47;7.10;;;;;;;21.54;53.79;100843.16;7312369;19;129583;-62
2022/12/17 22:04:11;;;;;;;78.93;9.27;;;;;;;21.53;53.99;100841.50;7309053;19;129295;-62
2022/12/17 22:06:37;;;;;;;40.97;5.82;;;;;;;21.43;54.16;100809.06;7313426;19;129540;-61
2022/12/17 22:09:04;;;;;;;32.97;5.78;;;;;;;21.57;54.74;100837.69;7309862;19;129261;-61
2022/12/17 22:11:29;;;;;;;;;;;;;;;21.41;54.64;100826.66;7309567;19;129387;-65
2022/12/17 22:14:01;;;;;;;30.07;5.97;;;;;;;21.54;54.02;100845.75;7313726;19;129360;-64
2022/12/17 22:16:28;;;;;;;41.50;6.43;;;;;;;21.56;54.32;100846.50;7313996;19;130798;-64
2022/12/17 22:18:54;;;;;;;42.65;6.85;;;;;;;21.55;54.08;100842.19;7313549;19;129503;-65
2022/12/17 22:21:19;;;;;;;35.53;6.05;;;;;;;21.53;54.45;100845.88;7313562;19;129175;-64
2022/12/17 22:23:46;;;;;;;43.50;6.55;;;;;;;21.54;54.68;100853.63;7314950;19;129391;-67
2022/12/17 22:26:14;;;;;;;22.63;5.53;;;;;;;21.53;54.72;100862.41;7315717;19;129606;-66
2022/12/17 22:28:41;;;;;;;28.45;5.55;;;;;;;21.49;54.21;100850.47;7314215;19;129798;-65
2022/12/17 22:33:53;;;;;;;67.78;8.25;;;;;;;21.49;55.34;100860.94;7313528;19;131548;-68
2022/12/17 22:36:18;;;;;;;53.40;7.07;;;;;;;21.38;55.08;100842.56;7312681;19;128909;-67
2022/12/17 22:38:44;;;;;;;29.73;5.40;;;;;;;21.52;54.59;100865.13;7315086;19;130057;-67
2022/12/17 22:43:28;;;;;;;29.37;5.70;;;;;;;21.53;55.25;100867.66;7313344;19;129139;-67
2022/12/17 22:43:59;;;;;;;36.08;5.68;;;;;;;21.47;54.99;100868.06;7312854;19;129085;-68
2022/12/17 22:46:24;;;;;;;46.58;6.97;;;;;;;21.47;54.90;100868.06;7314050;19;129161;-66
2022/12/17 22:48:49;;;;;;;29.20;5.82;;;;;;;21.47;54.84;100875.91;7313581;19;129378;-68
2022/12/17 22:51:15;;;;;;;37.50;6.37;;;;;;;21.32;54.66;100858.66;7312162;19;129771;-68
2022/12/17 22:53:40;;;;;;;59.00;7.60;;;;;;;21.40;54.73;100879.09;7311092;19;129544;-65
2022/12/17 22:56:06;;;;;;;35.35;6.57;;;;;;;21.40;55.31;100879.91;7312540;19;129346;-64
2022/12/17 22:58:35;;;;;;;35.17;6.27;;;;;;;21.37;55.43;100872.25;7312615;19;129923;-67
2022/12/17 23:01:01;;;;;;;42.58;6.75;;;;;;;21.41;54.18;100873.75;7309152;19;131200;-64
2022/12/17 23:03:26;;;;;;;36.70;6.68;;;;;;;21.40;54.38;100860.78;7311785;19;128906;-68
2022/12/17 23:05:51;;;;;;;39.77;5.93;;;;;;;21.51;53.96;100877.38;7311870;19;130065;-66
2022/12/17 23:08:17;;;;;;;35.53;6.20;;;;;;;21.55;54.18;100880.63;7313514;19;129526;-67
2022/12/17 23:10:42;;;;;;;61.05;8.32;;;;;;;21.61;53.57;100886.25;7309599;19;130258;-70
2022/12/17 23:13:07;;;;;;;29.05;5.75;;;;;;;21.64;53.63;100880.81;7312283;19;129120;-71
2022/12/17 23:15:35;;;;;;;49.67;6.73;;;;;;;21.67;53.37;100882.34;7315549;19;130369;-71
2022/12/17 23:18:03;;;;;;;22.23;5.22;;;;;;;21.61;53.38;100860.09;7316081;19;129278;-75
2022/12/17 23:20:32;;;;;;;23.33;5.30;;;;;;;21.72;53.95;100875.84;7315743;19;130289;-72
2022/12/17 23:23:02;;;;;;;10.50;5.35;;;;;;;21.74;53.87;100881.81;7315584;19;129098;-70
2022/12/17 23:25:28;;;;;;;29.95;5.75;;;;;;;21.72;53.89;100888.94;7329679;19;129337;-73
2022/12/17 23:27:54;;;;;;;35.53;5.82;;;;;;;21.71;53.41;100889.91;7314526;19;129365;-71
2022/12/17 23:30:20;;;;;;;19.48;5.32;;;;;;;21.71;54.18;100895.13;7314572;19;129885;-69
2022/12/17 23:32:46;;;;;;;52.25;7.70;;;;;;;21.70;53.25;100905.72;7310410;19;130402;-69
2022/12/17 23:35:12;;;;;;;40.30;6.78;;;;;;;21.69;53.70;100906.66;7311295;19;128878;-71
2022/12/17 23:37:39;;;;;;;41.78;6.68;;;;;;;21.64;54.07;100906.97;7314731;19;129954;-74
2022/12/17 23:40:06;;;;;;;38.15;6.53;;;;;;;21.62;53.90;100903.63;7311019;19;129714;-72
2022/12/17 23:42:31;;;;;;;29.90;6.00;;;;;;;21.62;54.24;100906.25;7308750;19;129144;-74
2022/12/17 23:44:57;;;;;;;58.03;7.80;;;;;;;21.52;54.01;100889.50;7313137;19;129511;-73
2022/12/17 23:47:22;;;;;;;52.92;7.65;;;;;;;21.60;53.95;100897.66;7314012;19;129958;-73
2022/12/17 23:49:47;;;;;;;64.30;7.90;;;;;;;21.61;53.70;100901.97;7307527;19;129549;-70
2022/12/17 23:52:13;;;;;;;42.08;6.63;;;;;;;21.54;53.78;100879.78;7310229;19;129313;-68
2022/12/17 23:54:39;;;;;;;56.08;7.47;;;;;;;21.54;54.21;100874.53;7311337;19;129544;-69
2022/12/17 23:57:05;;;;;;;20.95;5.28;;;;;;;21.63;53.93;100889.63;7310673;19;132057;-71
2022/12/17 23:59:30;;;;;;;27.75;5.65;;;;;;;21.69;53.81;100891.78;7313195;19;129363;-71
